Decatur, GA

6:57 AM EST on January 26, 2015 (GMT -0500)
Fulton County-Brown | Change Station
CLOSE
Current Station
Airport
Location: Atlanta Fulton,
Elevation: 840 ft
Nearby Weather Stations
Active Advisory: Wind Advisory

Elev 840 ft 33.78 °N, 84.52 °W | Updated 1 hour ago

Overcast
Overcast
44 °F
Feels Like 40 °F
N
8
Wind Variable Wind from West

Today
High -- | Low -- °F
--% Chance of Precip.
Yesterday
High -- | Low -- °F
Precip. -- in
7:37 AM 6:02 PM
Waxing Crescent, 42% visible
Pressure 29.75 in
Visibility 10.0 miles
Clouds Mostly Cloudy 2000 ft
Overcast 2800 ft
Windchill 40 °F
Dew Point 39 °F
Humidity 82%
Rainfall 0.00 in
Snow Depth Not available.
UV 0 out of 12
Pollen 2.70 out of 12
Air Quality Not available.
Flu Activity Not available.
METAR KFTY 261053Z 27007KT 10SM BKN020 OVC028 07/04 A2975 RMK AO2 SLP074 T00670039

More Conditions Fewer Conditions

Pressure 29.75 in
Visibility 10.0 miles
Clouds Mostly Cloudy 2000 ft
Overcast 2800 ft
Windchill 40 °F
Dew Point 39 °F
Humidity 82%
Rainfall 0.00 in
Snow Depth Not available.
UV 0 out of 12
Pollen 2.70 out of 12
Air Quality Not available.
Flu Activity Not available.
METAR KFTY 261053Z 27007KT 10SM BKN020 OVC028 07/04 A2975 RMK AO2 SLP074 T00670039

More Conditions Fewer Conditions

10-Day Weather Forecast

Almanac

Astronomy

Jan. 26, 2015 Rise Set
Actual Time
Civil Twilight
Nautical Twilight
Astronomical Twilight
Moon
Length of Visible Light
Length of Day
Tomorrow will be .
, % of the Moon is Illuminated

Today's Extremes

State Highs State Lows

Community

WunderPhotos

Upload Photos

1,790,172 photos uploaded!

WunderBlogs® & News

Nearby

Air Quality

  Air Quality AQ Index Pollutant
Not available.

Snow Depth

Station Depth Elevation

Earthquake Activity

City Distance Mag. Time & Date
Minimum magnitude displayed is 2.5.

Coastal Water Temperatures

Place Temperature

Nearby Weather Stations